createdAt,value
2019-06-10T00:00:57.701Z,4.25
2019-06-10T00:03:24.263Z,3.52
2019-06-10T00:05:51.751Z,5.45
2019-06-10T00:08:20.704Z,4.50
2019-06-10T00:10:46.906Z,4.20
2019-06-10T00:13:13.453Z,3.95
2019-06-10T00:15:40.965Z,7.53
2019-06-10T00:18:30.810Z,7.20
2019-06-10T00:20:36.358Z,3.58
2019-06-10T00:23:05.193Z,5.15
2019-06-10T00:25:31.513Z,4.60
2019-06-10T00:27:58.086Z,6.58
2019-06-10T00:30:24.629Z,4.22
2019-06-10T00:32:51.546Z,4.80
2019-06-10T00:35:18.209Z,4.05
2019-06-10T00:37:44.783Z,3.95
2019-06-10T00:40:14.116Z,3.33
2019-06-10T00:42:41.759Z,3.58
2019-06-10T00:45:14.677Z,4.78
2019-06-10T00:47:37.016Z,4.00
2019-06-10T00:50:07.287Z,3.30
2019-06-10T00:52:33.295Z,3.87
2019-06-10T00:55:01.684Z,6.85
2019-06-10T00:57:28.275Z,2.80
2019-06-10T00:59:54.819Z,4.80
2019-06-10T01:02:21.516Z,4.47
2019-06-10T01:04:48.126Z,5.37
2019-06-10T01:07:15.073Z,2.27
2019-06-10T01:09:41.643Z,3.27
2019-06-10T01:12:09.037Z,5.67
2019-06-10T01:14:35.635Z,3.77
2019-06-10T01:17:03.338Z,3.12
2019-06-10T01:19:31.065Z,2.42
2019-06-10T01:21:57.854Z,4.08
2019-06-10T01:24:24.367Z,3.65
2019-06-10T01:26:50.913Z,2.95
2019-06-10T01:29:18.128Z,5.10
2019-06-10T01:31:44.692Z,4.20
2019-06-10T01:34:12.386Z,2.67
2019-06-10T01:36:40.597Z,4.42
2019-06-10T01:39:07.176Z,3.12
2019-06-10T01:41:33.809Z,2.72
2019-06-10T01:44:01.746Z,2.77
2019-06-10T01:46:28.387Z,7.55
2019-06-10T01:48:54.916Z,3.45
2019-06-10T01:51:21.642Z,2.85
2019-06-10T01:53:50.988Z,3.27
2019-06-10T01:56:17.347Z,3.45
2019-06-10T01:58:44.968Z,3.87
2019-06-10T02:01:30.689Z,3.77
2019-06-10T02:03:57.397Z,2.33
2019-06-10T02:06:25.635Z,3.70
2019-06-10T02:08:54.268Z,3.37
2019-06-10T02:11:23.475Z,2.60
2019-06-10T02:13:51.417Z,7.05
2019-06-10T02:16:19.457Z,7.65
2019-06-10T02:18:59.883Z,7.35
2019-06-10T02:21:16.684Z,5.80
2019-06-10T02:23:43.086Z,6.05
2019-06-10T02:26:11.842Z,4.08
2019-06-10T02:28:38.064Z,5.87
2019-06-10T02:31:04.658Z,3.62
2019-06-10T02:33:36.038Z,1.95
2019-06-10T02:36:03.451Z,8.90
2019-06-10T02:38:35.406Z,4.10
2019-06-10T02:40:56.608Z,2.77
2019-06-10T02:43:32.108Z,2.87
2019-06-10T02:45:53.471Z,6.05
2019-06-10T02:48:22.495Z,5.25
2019-06-10T02:50:54.435Z,5.42
2019-06-10T02:53:27.823Z,4.65
2019-06-10T02:55:53.548Z,7.33
2019-06-10T02:58:21.499Z,6.65
2019-06-10T03:00:48.884Z,7.12
2019-06-10T03:03:22.944Z,4.05
2019-06-10T03:05:46.668Z,5.97
2019-06-10T03:08:13.101Z,7.53
2019-06-10T03:10:43.431Z,4.70
2019-06-10T03:13:08.508Z,5.22
2019-06-10T03:15:36.943Z,6.70
2019-06-10T03:18:03.472Z,4.12
2019-06-10T03:20:32.005Z,3.83
2019-06-10T03:22:58.499Z,4.53
2019-06-10T03:25:26.447Z,3.72
2019-06-10T03:27:53.458Z,3.72
2019-06-10T03:30:33.333Z,6.12
2019-06-10T03:32:48.414Z,5.15
2019-06-10T03:35:14.929Z,4.65
2019-06-10T03:37:42.386Z,4.65
2019-06-10T03:40:09.200Z,4.22
2019-06-10T03:42:35.965Z,3.85
2019-06-10T03:45:08.434Z,2.67
2019-06-10T03:47:35.105Z,5.28
2019-06-10T03:50:05.490Z,4.70
2019-06-10T03:52:32.524Z,4.08
2019-06-10T03:54:59.047Z,4.33
2019-06-10T03:57:27.317Z,2.35
2019-06-10T03:59:54.177Z,2.87
2019-06-10T04:02:23.531Z,3.05
2019-06-10T04:04:49.335Z,3.30
2019-06-10T04:07:15.868Z,4.12
2019-06-10T04:09:42.572Z,5.10
2019-06-10T04:12:09.141Z,2.58
2019-06-10T04:14:35.657Z,2.47
2019-06-10T04:17:02.774Z,2.27
2019-06-10T04:19:29.360Z,4.08
2019-06-10T04:21:56.391Z,2.60
2019-06-10T04:24:25.133Z,2.40
2019-06-10T04:26:52.163Z,2.30
2019-06-10T04:29:19.914Z,4.25
2019-06-10T04:31:47.112Z,1.95
2019-06-10T04:34:13.656Z,1.90
2019-06-10T04:36:42.352Z,3.20
2019-06-10T04:39:08.777Z,3.12
2019-06-10T04:41:35.319Z,2.15
2019-06-10T04:44:02.702Z,4.33
2019-06-10T04:46:29.650Z,2.92
2019-06-10T04:48:56.265Z,3.98
2019-06-10T04:51:23.884Z,2.27
2019-06-10T04:53:52.419Z,3.22
2019-06-10T04:56:19.713Z,4.00
2019-06-10T04:58:46.274Z,4.25
2019-06-10T05:01:12.799Z,4.70
2019-06-10T05:03:39.337Z,8.10
2019-06-10T05:06:05.863Z,9.23
2019-06-10T05:08:33.600Z,11.80
2019-06-10T05:11:00.550Z,9.50
2019-06-10T05:13:28.374Z,5.95
2019-06-10T05:15:55.537Z,6.35
2019-06-10T05:18:24.230Z,10.20
2019-06-10T05:20:57.680Z,23.70
2019-06-10T05:23:19.640Z,8.45
2019-06-10T05:25:46.758Z,9.20
2019-06-10T05:28:13.289Z,3.65
2019-06-10T05:30:42.460Z,10.10
2019-06-10T05:33:08.334Z,152.10
2019-06-10T05:35:34.890Z,5.67
2019-06-10T05:38:02.409Z,14.53
2019-06-10T05:40:29.359Z,139.43
2019-06-10T05:42:55.985Z,274.60
2019-06-10T05:45:24.690Z,118.00
2019-06-10T05:47:53.033Z,272.45
2019-06-10T05:50:19.396Z,127.65
2019-06-10T05:52:45.914Z,340.32
2019-06-10T05:55:12.651Z,967.37
2019-06-10T05:57:39.179Z,497.15
2019-06-10T06:00:14.024Z,5.62
2019-06-10T06:02:36.871Z,23.70
2019-06-10T06:05:07.676Z,7.70
2019-06-10T06:07:35.659Z,6.83
2019-06-10T06:10:04.874Z,6.35
2019-06-10T06:12:33.870Z,7.70
2019-06-10T06:15:02.195Z,6.00
2019-06-10T06:17:28.283Z,4.45
2019-06-10T06:19:55.539Z,6.67
2019-06-10T06:22:22.238Z,7.12
2019-06-10T06:24:49.102Z,5.28
2019-06-10T06:27:15.717Z,6.12
2019-06-10T06:29:43.127Z,5.08
2019-06-10T06:32:09.783Z,4.75
2019-06-10T06:34:38.675Z,5.83
2019-06-10T06:37:04.813Z,5.12
2019-06-10T06:39:33.410Z,4.87
2019-06-10T06:42:01.834Z,4.33
2019-06-10T06:44:29.589Z,7.72
2019-06-10T06:46:56.167Z,7.40
2019-06-10T06:49:23.131Z,5.42
2019-06-10T06:51:56.077Z,4.45
2019-06-10T06:54:18.169Z,7.45
2019-06-10T06:56:44.771Z,5.28
2019-06-10T06:59:13.199Z,4.03
2019-06-10T07:01:41.455Z,6.92
2019-06-10T07:04:08.778Z,4.50
2019-06-10T07:06:37.454Z,3.35
2019-06-10T07:09:08.076Z,3.10
2019-06-10T07:11:37.375Z,3.60
2019-06-10T07:14:04.125Z,3.05
2019-06-10T07:16:34.032Z,6.17
2019-06-10T07:18:59.083Z,4.90
2019-06-10T07:21:25.625Z,3.47
2019-06-10T07:23:52.895Z,6.33
2019-06-10T07:26:22.222Z,3.42
2019-06-10T07:28:49.153Z,3.27
2019-06-10T07:31:23.087Z,1.87
2019-06-10T07:33:46.936Z,1.95
2019-06-10T07:36:13.271Z,2.02
2019-06-10T07:38:41.856Z,3.72
2019-06-10T07:41:08.393Z,4.80
2019-06-10T07:43:38.270Z,2.02
2019-06-10T07:46:03.611Z,3.27
2019-06-10T07:48:34.482Z,2.33
2019-06-10T07:50:59.406Z,1.82
2019-06-10T07:53:25.986Z,2.05
2019-06-10T07:55:53.558Z,4.62
2019-06-10T07:58:22.315Z,1.85
2019-06-10T08:00:48.807Z,2.67
2019-06-10T08:03:15.312Z,3.10
2019-06-10T08:05:44.480Z,4.42
2019-06-10T08:08:12.936Z,1.98
2019-06-10T08:10:42.778Z,3.87
2019-06-10T08:13:08.202Z,2.83
2019-06-10T08:15:35.469Z,2.40
2019-06-10T08:18:04.345Z,5.83
2019-06-10T08:20:45.695Z,8.75
2019-06-10T08:23:17.459Z,3.67
2019-06-10T08:25:50.971Z,7.03
2019-06-10T08:28:13.956Z,6.87
2019-06-10T08:30:45.919Z,2.08
2019-06-10T08:33:13.721Z,2.15
2019-06-10T08:35:48.387Z,3.37
2019-06-10T08:38:09.519Z,5.58
2019-06-10T08:40:36.378Z,3.20
2019-06-10T08:43:04.328Z,1.98
2019-06-10T08:45:33.156Z,4.45
2019-06-10T08:47:59.598Z,3.47
2019-06-10T08:50:26.229Z,2.72
2019-06-10T08:53:10.428Z,4.95
2019-06-10T08:55:23.417Z,2.45
2019-06-10T08:57:51.640Z,2.70
2019-06-10T09:00:25.386Z,5.20
2019-06-10T09:02:51.447Z,3.95
2019-06-10T09:05:19.327Z,3.22
2019-06-10T09:07:50.879Z,4.25
2019-06-10T09:10:17.578Z,2.35
2019-06-10T09:12:47.964Z,1.92
2019-06-10T09:15:14.437Z,3.12
2019-06-10T09:17:44.735Z,4.40
2019-06-10T09:20:12.894Z,3.37
2019-06-10T09:22:39.956Z,6.87
2019-06-10T09:25:08.192Z,6.12
2019-06-10T09:27:34.925Z,6.10
2019-06-10T09:30:08.099Z,5.53
2019-06-10T09:32:34.753Z,3.90
2019-06-10T09:35:03.390Z,4.03
2019-06-10T09:37:31.932Z,4.40
2019-06-10T09:39:59.714Z,4.20
2019-06-10T09:42:26.675Z,3.55
2019-06-10T09:44:55.655Z,3.40
2019-06-10T09:47:22.698Z,5.72
2019-06-10T09:49:55.369Z,4.50
2019-06-10T09:52:19.226Z,8.45
2019-06-10T09:54:50.271Z,7.45
2019-06-10T09:57:14.896Z,3.25
2019-06-10T09:59:46.398Z,2.80
2019-06-10T10:02:12.464Z,4.17
2019-06-10T10:04:38.712Z,4.90
2019-06-10T10:07:06.459Z,5.55
2019-06-10T10:09:36.752Z,5.37
2019-06-10T10:12:03.030Z,3.52
2019-06-10T10:14:29.872Z,4.30
2019-06-10T10:17:00.172Z,4.47
2019-06-10T10:19:25.117Z,6.05
2019-06-10T10:21:56.074Z,4.75
2019-06-10T10:24:22.876Z,5.75
2019-06-10T10:26:51.419Z,4.17
2019-06-10T10:29:17.301Z,2.95
2019-06-10T10:31:47.481Z,2.58
2019-06-10T10:34:13.475Z,4.97
2019-06-10T10:36:40.384Z,3.52
2019-06-10T10:39:07.632Z,4.35
2019-06-10T10:41:34.263Z,3.50
2019-06-10T10:44:03.132Z,2.33
2019-06-10T10:46:29.353Z,4.97
2019-06-10T10:48:56.551Z,5.83
2019-06-10T10:51:23.313Z,2.95
2019-06-10T10:54:15.510Z,2.62
2019-06-10T10:56:18.352Z,3.12
2019-06-10T10:58:46.976Z,4.37
2019-06-10T11:01:14.932Z,5.80
2019-06-10T11:03:44.072Z,3.22
2019-06-10T11:06:12.937Z,6.30
2019-06-10T11:08:38.992Z,2.02
2019-06-10T11:11:06.135Z,4.10
2019-06-10T11:13:34.916Z,13.35
2019-06-10T11:16:03.563Z,3.12
2019-06-10T11:18:30.107Z,5.10
2019-06-10T11:21:00.358Z,2.83
2019-06-10T11:23:26.978Z,4.05
2019-06-10T11:25:56.933Z,3.50
2019-06-10T11:28:22.836Z,4.20
2019-06-10T11:30:49.572Z,3.37
2019-06-10T11:33:16.224Z,7.55
2019-06-10T11:35:42.981Z,3.35
2019-06-10T11:38:09.594Z,5.15
2019-06-10T11:40:36.110Z,3.08
2019-06-10T11:43:02.857Z,3.83
2019-06-10T11:45:29.393Z,4.65
2019-06-10T11:47:57.011Z,4.67
2019-06-10T11:50:25.043Z,9.40
2019-06-10T11:52:55.185Z,6.22
2019-06-10T11:55:21.399Z,7.42
2019-06-10T11:57:49.627Z,2.20
2019-06-10T12:00:17.514Z,3.60
2019-06-10T12:02:44.931Z,2.92
2019-06-10T12:05:13.013Z,2.70
2019-06-10T12:07:42.595Z,4.17
2019-06-10T12:10:09.126Z,2.10
2019-06-10T12:12:35.669Z,4.17
2019-06-10T12:15:06.752Z,3.90
2019-06-10T12:17:43.135Z,3.42
2019-06-10T12:20:09.214Z,4.67
2019-06-10T12:22:35.752Z,6.67
2019-06-10T12:25:28.367Z,4.37
2019-06-10T12:27:33.716Z,3.05
2019-06-10T12:30:04.694Z,3.17
2019-06-10T12:32:29.044Z,5.08
2019-06-10T12:34:56.232Z,2.85
2019-06-10T12:37:24.136Z,2.83
2019-06-10T12:39:52.966Z,2.95
2019-06-10T12:42:19.193Z,5.00
2019-06-10T12:44:45.749Z,8.65
2019-06-10T12:47:12.283Z,10.25
2019-06-10T12:49:38.859Z,6.15
2019-06-10T12:52:07.664Z,4.12
2019-06-10T12:54:34.034Z,4.42
2019-06-10T12:57:00.673Z,9.70
2019-06-10T12:59:28.943Z,5.80
2019-06-10T13:01:55.855Z,4.90
2019-06-10T13:04:22.629Z,3.22
2019-06-10T13:06:52.610Z,7.67
2019-06-10T13:09:18.719Z,6.78
2019-06-10T13:11:45.228Z,4.22
2019-06-10T13:14:13.022Z,4.45
2019-06-10T13:16:40.631Z,4.08
2019-06-10T13:19:08.152Z,3.47
2019-06-10T13:21:34.705Z,4.30
2019-06-10T13:24:03.697Z,7.85
2019-06-10T13:26:32.930Z,3.40
2019-06-10T13:28:58.992Z,6.70
2019-06-10T13:31:25.563Z,12.88
2019-06-10T13:33:52.885Z,9.13
2019-06-10T13:36:23.626Z,5.87
2019-06-10T13:38:48.143Z,7.03
2019-06-10T13:41:14.915Z,10.88
2019-06-10T13:43:43.486Z,4.12
2019-06-10T13:46:10.961Z,4.45
2019-06-10T13:48:37.728Z,8.03
2019-06-10T13:51:08.597Z,7.03
2019-06-10T13:53:32.736Z,7.47
2019-06-10T13:56:23.386Z,7.58
2019-06-10T13:58:27.987Z,5.58
2019-06-10T14:00:54.543Z,4.78
2019-06-10T14:03:22.921Z,3.87
2019-06-10T14:05:49.797Z,4.30
2019-06-10T14:08:16.419Z,4.30
2019-06-10T14:10:43.121Z,3.17
2019-06-10T14:13:15.257Z,3.45
2019-06-10T14:15:39.285Z,3.67
2019-06-10T14:18:07.404Z,4.45
2019-06-10T14:20:36.684Z,3.52
2019-06-10T14:23:04.030Z,4.53
2019-06-10T14:25:32.963Z,3.45
2019-06-10T14:27:59.182Z,3.17
2019-06-10T14:30:25.741Z,4.55
2019-06-10T14:32:53.244Z,5.03
2019-06-10T14:35:22.444Z,5.70
2019-06-10T14:37:48.515Z,4.78
2019-06-10T14:40:20.908Z,4.60
2019-06-10T14:42:43.835Z,4.72
2019-06-10T14:45:13.500Z,4.67
2019-06-10T14:47:39.554Z,4.75
2019-06-10T14:50:11.513Z,5.97
2019-06-10T14:52:38.339Z,8.05
2019-06-10T14:55:07.087Z,7.58
2019-06-10T14:57:33.844Z,5.10
2019-06-10T15:00:03.012Z,6.15
2019-06-10T15:02:28.848Z,5.67
2019-06-10T15:04:55.638Z,6.72
2019-06-10T15:07:23.749Z,7.47
2019-06-10T15:09:52.599Z,6.47
2019-06-10T15:12:20.625Z,4.97
2019-06-10T15:14:47.707Z,4.22
2019-06-10T15:17:14.669Z,4.65
2019-06-10T15:19:42.544Z,7.90
2019-06-10T15:22:09.503Z,5.45
2019-06-10T15:24:36.689Z,4.42
2019-06-10T15:27:12.680Z,5.20
2019-06-10T15:29:32.796Z,6.67
2019-06-10T15:32:10.483Z,5.15
2019-06-10T15:34:28.371Z,7.28
2019-06-10T15:36:55.073Z,4.83
2019-06-10T15:39:24.155Z,4.97
2019-06-10T15:41:52.179Z,4.30
2019-06-10T15:44:37.291Z,4.42
2019-06-10T15:46:47.017Z,3.83
2019-06-10T15:49:17.322Z,3.35
2019-06-10T15:51:43.570Z,4.40
2019-06-10T15:54:15.378Z,4.60
2019-06-10T15:56:49.370Z,7.05
2019-06-10T15:59:07.758Z,6.30
2019-06-10T16:01:34.295Z,7.92
2019-06-10T16:04:00.882Z,7.20
2019-06-10T16:06:27.487Z,7.95
2019-06-10T16:08:54.024Z,5.25
2019-06-10T16:11:24.314Z,5.33
2019-06-10T16:13:49.204Z,6.00
2019-06-10T16:16:16.852Z,4.65
2019-06-10T16:18:43.441Z,5.25
2019-06-10T16:21:12.220Z,4.45
2019-06-10T16:23:38.472Z,6.55
2019-06-10T16:26:05.020Z,3.05
2019-06-10T16:28:32.871Z,4.62
2019-06-10T16:30:59.597Z,5.78
2019-06-10T16:33:27.843Z,4.50
2019-06-10T16:35:54.577Z,4.30
2019-06-10T16:38:23.735Z,3.77
2019-06-10T16:40:49.582Z,3.62
2019-06-10T16:43:17.740Z,5.28
2019-06-10T16:45:44.448Z,4.47
2019-06-10T16:48:13.078Z,18.45
2019-06-10T16:50:39.429Z,7.10
2019-06-10T16:53:05.941Z,5.33
2019-06-10T16:55:33.229Z,6.08
2019-06-10T16:58:02.587Z,5.75
2019-06-10T17:00:28.403Z,5.50
2019-06-10T17:02:54.945Z,6.65
2019-06-10T17:05:25.134Z,6.53
2019-06-10T17:07:52.435Z,5.28
2019-06-10T17:10:19.588Z,5.85
2019-06-10T17:12:48.181Z,7.03
2019-06-10T17:15:15.009Z,5.65
2019-06-10T17:17:41.615Z,5.55
2019-06-10T17:20:08.541Z,9.68
2019-06-10T17:22:35.188Z,7.97
2019-06-10T17:25:04.215Z,9.90
2019-06-10T17:27:32.731Z,11.50
2019-06-10T17:29:59.321Z,7.50
2019-06-10T17:32:26.910Z,12.63
2019-06-10T17:34:54.369Z,8.68
2019-06-10T17:37:20.920Z,21.80
2019-06-10T17:39:47.460Z,20.40
2019-06-10T17:42:13.984Z,13.13
2019-06-10T17:44:42.757Z,9.80
2019-06-10T17:47:09.003Z,8.60
2019-06-10T17:49:35.557Z,13.62
2019-06-10T17:52:02.542Z,13.43
2019-06-10T17:54:30.329Z,10.90
2019-06-10T17:56:56.927Z,8.88
2019-06-10T17:59:24.952Z,14.07
2019-06-10T18:01:52.429Z,7.62
2019-06-10T18:04:19.048Z,11.18
2019-06-10T18:06:45.582Z,8.98
2019-06-10T18:09:12.437Z,14.25
2019-06-10T18:11:39.306Z,9.03
2019-06-10T18:14:05.928Z,12.33
2019-06-10T18:16:36.137Z,12.25
2019-06-10T18:19:03.168Z,9.18
2019-06-10T18:21:30.486Z,10.65
2019-06-10T18:24:07.448Z,11.33
2019-06-10T18:26:26.757Z,12.25
2019-06-10T18:29:01.919Z,8.43
2019-06-10T18:31:23.296Z,9.70
2019-06-10T18:33:50.164Z,12.33
2019-06-10T18:36:16.737Z,12.65
2019-06-10T18:38:43.560Z,13.13
2019-06-10T18:41:12.761Z,663.50
2019-06-10T18:43:39.936Z,1458.65
2019-06-10T18:46:06.750Z,645.38
2019-06-10T18:48:36.087Z,730.35
2019-06-10T18:51:01.766Z,599.27
2019-06-10T18:53:28.564Z,1311.73
2019-06-10T18:55:55.152Z,512.25
2019-06-10T18:58:22.352Z,611.33
2019-06-10T19:01:02.034Z,150.30
2019-06-10T19:03:17.721Z,1239.35
2019-06-10T19:05:44.374Z,510.02
2019-06-10T19:08:10.968Z,355.98
2019-06-10T19:10:38.721Z,636.42
2019-06-10T19:13:06.156Z,369.27
2019-06-10T19:15:33.629Z,889.95
2019-06-10T19:18:02.969Z,323.30
2019-06-10T19:20:30.765Z,253.83
2019-06-10T19:22:57.435Z,541.05
2019-06-10T19:25:24.048Z,818.75
2019-06-10T19:27:53.003Z,929.40
2019-06-10T19:30:23.138Z,1258.28
2019-06-10T19:32:49.021Z,1305.60
2019-06-10T19:35:15.696Z,700.77
2019-06-10T19:37:42.430Z,406.20
2019-06-10T19:40:12.238Z,369.15
2019-06-10T19:42:38.792Z,170.00
2019-06-10T19:45:07.624Z,252.50
2019-06-10T19:47:35.671Z,331.52
2019-06-10T19:50:05.962Z,177.05
2019-06-10T19:52:34.041Z,273.05
2019-06-10T19:55:02.690Z,648.97
2019-06-10T19:57:29.468Z,505.37
2019-06-10T20:00:08.401Z,276.35
2019-06-10T20:02:24.696Z,642.65
2019-06-10T20:04:52.825Z,209.10
2019-06-10T20:07:19.598Z,136.97
2019-06-10T20:09:46.400Z,23.77
2019-06-10T20:12:13.008Z,33.60
2019-06-10T20:14:41.180Z,18.12
2019-06-10T20:17:08.275Z,19.40
2019-06-10T20:19:35.713Z,15.98
2019-06-10T20:22:02.451Z,12.58
2019-06-10T20:24:29.026Z,13.50
2019-06-10T20:26:55.582Z,12.50
2019-06-10T20:29:22.242Z,12.18
2019-06-10T20:31:49.040Z,11.28
2019-06-10T20:34:15.845Z,19.62
2019-06-10T20:36:44.091Z,13.62
2019-06-10T20:39:10.816Z,8.55
2019-06-10T20:41:37.440Z,6.72
2019-06-10T20:44:04.007Z,4.83
2019-06-10T20:46:32.350Z,4.87
2019-06-10T20:48:59.026Z,4.35
2019-06-10T20:51:27.220Z,5.83
2019-06-10T20:53:54.023Z,5.05
2019-06-10T20:56:23.307Z,5.15
2019-06-10T20:58:49.764Z,8.35
2019-06-10T21:01:17.092Z,5.55
2019-06-10T21:03:45.589Z,5.97
2019-06-10T21:06:13.210Z,5.45
2019-06-10T21:08:44.932Z,5.75
2019-06-10T21:11:09.606Z,6.28
2019-06-10T21:13:36.181Z,4.92
2019-06-10T21:16:03.712Z,4.35
2019-06-10T21:18:32.923Z,6.08
2019-06-10T21:20:59.132Z,4.47
2019-06-10T21:23:25.715Z,2.72
2019-06-10T21:25:52.586Z,3.12
2019-06-10T21:28:19.193Z,5.22
2019-06-10T21:30:49.698Z,2.15
2019-06-10T21:33:14.238Z,2.10
2019-06-10T21:35:44.106Z,1.85
2019-06-10T21:38:09.309Z,3.87
2019-06-10T21:40:35.829Z,5.80
2019-06-10T21:43:03.019Z,2.00
2019-06-10T21:45:32.288Z,3.20
2019-06-10T21:47:58.314Z,2.45
2019-06-10T21:50:24.849Z,3.70
2019-06-10T21:52:53.495Z,3.00
2019-06-10T21:55:22.280Z,5.65
2019-06-10T21:57:48.816Z,2.70
2019-06-10T22:00:17.996Z,1.90
2019-06-10T22:02:47.111Z,5.62
2019-06-10T22:05:14.509Z,6.42
2019-06-10T22:07:42.309Z,5.92
2019-06-10T22:10:09.764Z,5.00
2019-06-10T22:12:36.344Z,7.62
2019-06-10T22:15:12.453Z,2.85
2019-06-10T22:17:39.157Z,3.77
2019-06-10T22:20:06.490Z,3.35
2019-06-10T22:22:33.036Z,9.08
2019-06-10T22:24:59.560Z,5.40
2019-06-10T22:27:26.119Z,2.50
2019-06-10T22:29:54.291Z,4.15
2019-06-10T22:32:21.196Z,2.62
2019-06-10T22:34:47.756Z,4.62
2019-06-10T22:37:14.293Z,2.22
2019-06-10T22:39:42.038Z,2.75
2019-06-10T22:42:08.681Z,4.10
2019-06-10T22:44:35.232Z,2.60
2019-06-10T22:47:02.922Z,3.83
2019-06-10T22:49:29.633Z,2.35
2019-06-10T22:51:58.443Z,3.35
2019-06-10T22:54:24.707Z,7.20
2019-06-10T22:56:54.228Z,3.85
2019-06-10T22:59:19.797Z,4.47
2019-06-10T23:01:46.380Z,2.37
2019-06-10T23:04:13.547Z,3.98
2019-06-10T23:06:40.173Z,4.33
2019-06-10T23:09:06.839Z,4.83
2019-06-10T23:11:33.386Z,4.65
2019-06-10T23:13:59.936Z,3.85
2019-06-10T23:16:26.477Z,3.47
2019-06-10T23:18:55.007Z,3.30
2019-06-10T23:21:21.479Z,2.67
2019-06-10T23:23:49.356Z,3.27
2019-06-10T23:26:16.058Z,2.37
2019-06-10T23:28:42.587Z,3.65
2019-06-10T23:31:09.131Z,2.62
2019-06-10T23:33:36.028Z,4.03
2019-06-10T23:36:04.100Z,3.95
2019-06-10T23:38:32.913Z,3.22
2019-06-10T23:40:59.348Z,3.05
2019-06-10T23:43:26.019Z,3.35
2019-06-10T23:45:53.279Z,2.15
2019-06-10T23:48:22.564Z,3.67
2019-06-10T23:50:48.392Z,3.92
2019-06-10T23:53:14.937Z,2.62
2019-06-10T23:55:42.801Z,4.28
2019-06-10T23:58:09.839Z,3.42
